Terminal Aerodrome Forecast
Issued by NWS Shreveport, LA

Home | Current Version | Previous Version | Text Only | Print | Product List | Glossary On
Versions: 1 2 3 4 5 6 7 8 9 10 11 12 13 14 15 16 17
000
FTUS44 KSHV 241126
TAFTXK
TAF
KTXK 241126Z 2412/2512 06005KT P6SM BKN080
      TEMPO 2412/2414 3SM BR BKN004
     FM241400 03010KT P6SM SCT030
      TEMPO 2414/2416 BKN020
     FM241800 06008KT P6SM BKN250
     FM250000 VRB04KT P6SM SCT100=

USA.gov is the U.S. government's official web portal to all federal, state and local government web resources and services.